createdAt,value
2019-05-02T00:00:32.032Z,100586.36
2019-05-02T00:03:04.381Z,100581.57
2019-05-02T00:05:32.121Z,100582.83
2019-05-02T00:08:01.117Z,100576.28
2019-05-02T00:10:30.738Z,100577.58
2019-05-02T00:12:59.398Z,100576.25
2019-05-02T00:15:27.927Z,100571.00
2019-05-02T00:17:56.791Z,100569.20
2019-05-02T00:20:27.199Z,100573.45
2019-05-02T00:22:55.733Z,100565.21
2019-05-02T00:25:24.208Z,100560.86
2019-05-02T00:27:52.757Z,100559.13
2019-05-02T00:30:21.912Z,100560.39
2019-05-02T00:32:53.151Z,100551.32
2019-05-02T00:35:20.625Z,100558.23
2019-05-02T00:37:49.141Z,100551.75
2019-05-02T00:40:20.297Z,100546.11
2019-05-02T00:42:47.887Z,100548.70
2019-05-02T00:45:18.805Z,100546.53
2019-05-02T00:47:49.825Z,100551.25
2019-05-02T00:50:18.701Z,100549.48
2019-05-02T00:52:47.208Z,100540.38
2019-05-02T00:55:15.692Z,100544.20
2019-05-02T00:57:44.191Z,100541.17
2019-05-02T01:00:18.382Z,100533.80
2019-05-02T01:02:49.852Z,100527.33
2019-05-02T01:05:18.336Z,100526.89
2019-05-02T01:07:46.865Z,100516.06
2019-05-02T01:10:17.359Z,100514.30
2019-05-02T01:12:46.189Z,100509.95
2019-05-02T01:15:15.250Z,100509.08
2019-05-02T01:17:43.725Z,100512.54
2019-05-02T01:20:12.361Z,100511.24
2019-05-02T01:22:40.945Z,100503.47
2019-05-02T01:25:15.313Z,100495.70
2019-05-02T01:27:48.261Z,100503.07
2019-05-02T01:30:24.382Z,100485.34
2019-05-02T01:33:01.430Z,100488.76
2019-05-02T01:35:31.568Z,100483.55
2019-05-02T01:38:19.299Z,100485.27
2019-05-02T01:40:53.113Z,100478.36
2019-05-02T01:43:27.572Z,100477.50
2019-05-02T01:45:56.016Z,100484.41
2019-05-02T01:48:24.751Z,100470.56
2019-05-02T01:50:53.350Z,100475.27
2019-05-02T01:53:21.821Z,100461.85
2019-05-02T01:55:51.910Z,100458.33
2019-05-02T01:58:22.518Z,100460.02
2019-05-02T02:00:50.717Z,100463.87
2019-05-02T02:03:19.371Z,100451.35
2019-05-02T02:05:47.967Z,100449.16
2019-05-02T02:08:16.452Z,100447.87
2019-05-02T02:10:44.944Z,100443.98
2019-05-02T02:13:14.300Z,100431.00
2019-05-02T02:15:42.788Z,100425.83
2019-05-02T02:18:12.627Z,100425.39
2019-05-02T02:20:59.191Z,100423.66
2019-05-02T02:23:29.293Z,100412.88
2019-05-02T02:25:59.392Z,100410.75
2019-05-02T02:28:32.078Z,100408.16
2019-05-02T02:31:04.668Z,100407.30
2019-05-02T02:33:28.299Z,100401.26
2019-05-02T02:35:56.796Z,100396.08
2019-05-02T02:38:26.818Z,100402.13
2019-05-02T02:40:55.533Z,100400.83
2019-05-02T02:43:34.062Z,100402.55
2019-05-02T02:46:12.258Z,100402.55
2019-05-02T02:48:42.697Z,100396.98
2019-05-02T02:51:22.142Z,100394.82
2019-05-02T02:53:41.210Z,100391.80
2019-05-02T02:56:09.947Z,100397.01
2019-05-02T02:58:45.158Z,100386.66
2019-05-02T03:01:08.679Z,100393.16
2019-05-02T03:03:38.147Z,100384.96
2019-05-02T03:06:08.308Z,100376.33
2019-05-02T03:08:45.305Z,100378.95
2019-05-02T03:11:07.472Z,100380.64
2019-05-02T03:13:51.283Z,100372.47
2019-05-02T03:16:24.602Z,100371.64
2019-05-02T03:18:53.073Z,100373.37
2019-05-02T03:21:22.519Z,100364.77
2019-05-02T03:24:01.546Z,100367.79
2019-05-02T03:26:21.575Z,100363.50
2019-05-02T03:28:57.670Z,100361.38
2019-05-02T03:31:24.897Z,100361.77
2019-05-02T03:33:55.785Z,100347.96
2019-05-02T03:36:29.669Z,100350.12
2019-05-02T03:38:51.082Z,100350.58
2019-05-02T03:41:20.753Z,100346.70
2019-05-02T03:43:50.087Z,100335.47
2019-05-02T03:46:20.615Z,100343.70
2019-05-02T03:48:48.873Z,100341.11
2019-05-02T03:51:21.675Z,100341.58
2019-05-02T03:53:47.616Z,100335.09
2019-05-02T03:56:16.258Z,100337.26
2019-05-02T03:58:48.334Z,100341.58
2019-05-02T04:01:15.512Z,100342.01
2019-05-02T04:03:44.144Z,100340.71
2019-05-02T04:06:20.292Z,100342.03
2019-05-02T04:08:43.876Z,100339.91
2019-05-02T04:11:15.524Z,100333.03
2019-05-02T04:13:43.990Z,100339.04
2019-05-02T04:16:15.511Z,100339.47
2019-05-02T04:18:54.588Z,100342.92
2019-05-02T04:21:13.498Z,100341.20
2019-05-02T04:23:42.691Z,100344.69
2019-05-02T04:26:12.812Z,100339.08
2019-05-02T04:28:45.532Z,100333.89
2019-05-02T04:31:11.673Z,100328.73
2019-05-02T04:33:40.148Z,100332.19
2019-05-02T04:36:15.206Z,100324.42
2019-05-02T04:38:46.990Z,100323.12
2019-05-02T04:41:09.521Z,100320.96
2019-05-02T04:43:40.626Z,100324.87
2019-05-02T04:46:17.514Z,100324.87
2019-05-02T04:48:44.334Z,100326.63
2019-05-02T04:51:15.957Z,100324.47
2019-05-02T04:53:44.408Z,100312.41
2019-05-02T04:56:10.627Z,100316.72
2019-05-02T04:58:40.755Z,100316.75
2019-05-02T05:01:10.078Z,100317.23
2019-05-02T05:03:38.806Z,100320.69
2019-05-02T05:06:11.917Z,100315.97
2019-05-02T05:08:41.580Z,100313.81
2019-05-02T05:11:08.945Z,100311.64
2019-05-02T05:13:37.607Z,100315.97
2019-05-02T05:16:08.624Z,100315.96
2019-05-02T05:18:37.811Z,100307.35
2019-05-02T05:21:10.338Z,100312.10
2019-05-02T05:23:38.458Z,100304.33
2019-05-02T05:26:07.400Z,100312.13
2019-05-02T05:28:40.459Z,100311.72
2019-05-02T05:31:07.661Z,100311.74
2019-05-02T05:33:37.753Z,100312.60
2019-05-02T05:36:08.156Z,100307.85
2019-05-02T05:38:40.451Z,100312.63
2019-05-02T05:41:09.025Z,100313.06
2019-05-02T05:43:38.254Z,100308.33
2019-05-02T05:46:10.728Z,100313.11
2019-05-02T05:48:40.648Z,100313.97
2019-05-02T05:51:07.470Z,100318.29
2019-05-02T05:53:37.679Z,100311.81
2019-05-02T05:56:07.955Z,100308.37
2019-05-02T05:58:39.833Z,100311.86
2019-05-02T06:01:09.535Z,100308.89
2019-05-02T06:03:41.986Z,100308.05
2019-05-02T06:06:08.233Z,100307.61
2019-05-02T06:08:37.317Z,100300.31
2019-05-02T06:11:05.880Z,100306.41
2019-05-02T06:13:34.365Z,100295.63
2019-05-02T06:16:03.460Z,100298.66
2019-05-02T06:18:36.340Z,100296.53
2019-05-02T06:21:03.442Z,100291.36
2019-05-02T06:23:36.419Z,100288.34
2019-05-02T06:26:08.031Z,100284.93
2019-05-02T06:28:36.217Z,100278.45
2019-05-02T06:31:07.292Z,100281.95
2019-05-02T06:33:33.861Z,100281.10
2019-05-02T06:36:02.591Z,100285.89
2019-05-02T06:38:31.147Z,100264.31
2019-05-02T06:40:59.606Z,100273.88
2019-05-02T06:43:28.085Z,100271.71
2019-05-02T06:45:56.606Z,100276.97
2019-05-02T06:48:25.089Z,100270.08
2019-05-02T06:50:53.572Z,100266.20
2019-05-02T06:53:22.095Z,100267.53
2019-05-02T06:55:50.587Z,100267.11
2019-05-02T06:58:19.164Z,100264.97
2019-05-02T07:00:57.448Z,100268.89
2019-05-02T07:03:17.967Z,100267.62
2019-05-02T07:05:49.074Z,100262.00
2019-05-02T07:08:16.893Z,100254.22
2019-05-02T07:10:45.381Z,100258.55
2019-05-02T07:13:16.019Z,100267.24
2019-05-02T07:15:57.890Z,100261.17
2019-05-02T07:18:28.043Z,100256.44
2019-05-02T07:20:56.523Z,100264.23
2019-05-02T07:23:25.130Z,100262.94
2019-05-02T07:25:53.623Z,100254.72
2019-05-02T07:28:24.068Z,100258.61
2019-05-02T07:30:54.631Z,100259.07
2019-05-02T07:33:22.622Z,100259.09
2019-05-02T07:35:55.180Z,100248.25
2019-05-02T07:38:25.609Z,100248.27
2019-05-02T07:40:53.128Z,100251.30
2019-05-02T07:43:22.403Z,100259.08
2019-05-02T07:45:51.103Z,100257.78
2019-05-02T07:48:19.592Z,100254.33
2019-05-02T07:50:48.278Z,100259.08
2019-05-02T07:53:16.868Z,100261.68
2019-05-02T07:55:45.349Z,100263.84
2019-05-02T07:58:13.836Z,100264.28
2019-05-02T08:00:42.369Z,100266.03
2019-05-02T08:03:10.857Z,100270.34
2019-05-02T08:05:39.327Z,100262.56
2019-05-02T08:08:07.921Z,100269.97
2019-05-02T08:10:36.480Z,100266.48
2019-05-02T08:13:05.061Z,100269.52
2019-05-02T08:15:33.886Z,100266.08
2019-05-02T08:18:02.381Z,100269.53
2019-05-02T08:20:30.869Z,100260.02
2019-05-02T08:22:59.384Z,100261.73
2019-05-02T08:25:27.866Z,100258.29
2019-05-02T08:27:58.065Z,100260.90
2019-05-02T08:30:28.410Z,100263.48
2019-05-02T08:32:56.892Z,100262.64
2019-05-02T08:35:28.096Z,100262.19
2019-05-02T08:37:56.143Z,100255.24
2019-05-02T08:40:24.914Z,100255.25
2019-05-02T08:42:53.401Z,100259.14
2019-05-02T08:45:22.003Z,100253.03
2019-05-02T08:47:50.489Z,100249.14
2019-05-02T08:50:19.142Z,100250.41
2019-05-02T08:52:48.098Z,100250.37
2019-05-02T08:55:16.906Z,100246.02
2019-05-02T08:57:45.375Z,100249.90
2019-05-02T09:00:14.429Z,100253.38
2019-05-02T09:02:42.915Z,100245.53
2019-05-02T09:05:11.463Z,100262.89
2019-05-02T09:07:42.762Z,100251.16
2019-05-02T09:10:10.803Z,100253.33
2019-05-02T09:12:42.089Z,100248.98
2019-05-02T09:15:11.813Z,100255.03
2019-05-02T09:17:46.077Z,100248.50
2019-05-02T09:20:18.701Z,100250.66
2019-05-02T09:22:46.666Z,100255.84
2019-05-02T09:25:12.818Z,100255.80
2019-05-02T09:27:42.031Z,100256.66
2019-05-02T09:30:17.027Z,100257.05
2019-05-02T09:32:42.715Z,100250.94
2019-05-02T09:35:11.822Z,100248.25
2019-05-02T09:37:41.934Z,100247.31
2019-05-02T09:40:12.607Z,100255.11
2019-05-02T09:42:43.002Z,100249.83
2019-05-02T09:45:16.311Z,100248.88
2019-05-02T09:47:55.825Z,100247.09
2019-05-02T09:50:20.580Z,100247.06
2019-05-02T09:52:47.159Z,100244.87
2019-05-02T09:55:16.661Z,100251.36
2019-05-02T09:57:47.021Z,100232.16
2019-05-02T10:00:35.752Z,100241.27
2019-05-02T10:03:02.690Z,100238.66
2019-05-02T10:05:32.209Z,100254.80
2019-05-02T10:08:02.989Z,100241.81
2019-05-02T10:10:32.347Z,100249.23
2019-05-02T10:13:02.817Z,100242.26
2019-05-02T10:15:32.678Z,100237.42
2019-05-02T10:18:10.629Z,100236.97
2019-05-02T10:20:36.180Z,100233.91
2019-05-02T10:23:04.621Z,100236.52
2019-05-02T10:25:38.696Z,100236.97
2019-05-02T10:28:03.493Z,100235.22
2019-05-02T10:30:36.000Z,100233.50
2019-05-02T10:33:04.534Z,100228.73
2019-05-02T10:35:40.415Z,100223.96
2019-05-02T10:38:04.915Z,100223.92
2019-05-02T10:40:33.437Z,100222.25
2019-05-02T10:43:02.864Z,100220.08
2019-05-02T10:45:32.082Z,100222.69
2019-05-02T10:48:02.290Z,100218.33
2019-05-02T10:50:32.967Z,100226.56
2019-05-02T10:53:03.566Z,100224.81
2019-05-02T10:55:33.257Z,100217.40
2019-05-02T10:58:02.086Z,100213.86
2019-05-02T11:00:32.545Z,100211.61
2019-05-02T11:03:05.867Z,100213.73
2019-05-02T11:05:37.400Z,100210.59
2019-05-02T11:08:06.519Z,100213.61
2019-05-02T11:10:35.130Z,100209.70
2019-05-02T11:13:14.479Z,100212.26
2019-05-02T11:15:52.507Z,100212.21
2019-05-02T11:18:38.787Z,100202.58
2019-05-02T11:20:53.294Z,100203.84
2019-05-02T11:23:22.160Z,100206.41
2019-05-02T11:25:52.644Z,100208.62
2019-05-02T11:28:22.041Z,100205.55
2019-05-02T11:30:52.487Z,100207.77
2019-05-02T11:33:22.843Z,100204.34
2019-05-02T11:35:53.479Z,100202.17
2019-05-02T11:38:39.557Z,100199.16
2019-05-02T11:40:52.149Z,100210.46
2019-05-02T11:43:22.290Z,100195.28
2019-05-02T11:45:54.397Z,100208.34
2019-05-02T11:48:22.591Z,100207.49
2019-05-02T11:50:52.309Z,100204.02
2019-05-02T11:53:28.503Z,100196.72
2019-05-02T11:55:53.198Z,100206.80
2019-05-02T11:58:22.987Z,100205.09
2019-05-02T12:00:52.280Z,100202.44
2019-05-02T12:03:28.110Z,100203.37
2019-05-02T12:05:55.692Z,100199.95
2019-05-02T12:08:24.593Z,100200.44
2019-05-02T12:10:53.085Z,100210.50
2019-05-02T12:13:22.683Z,100206.17
2019-05-02T12:15:51.998Z,100208.78
2019-05-02T12:18:23.191Z,100205.73
2019-05-02T12:20:51.951Z,100194.40
2019-05-02T12:23:22.634Z,100207.86
2019-05-02T12:25:52.036Z,100204.36
2019-05-02T12:28:22.777Z,100206.55
2019-05-02T12:30:51.886Z,100200.89
2019-05-02T12:33:22.319Z,100207.45
2019-05-02T12:35:52.448Z,100207.48
2019-05-02T12:38:23.109Z,100211.88
2019-05-02T12:40:52.037Z,100208.86
2019-05-02T12:43:22.767Z,100210.61
2019-05-02T12:45:52.850Z,100198.87
2019-05-02T12:48:21.982Z,100203.23
2019-05-02T12:50:52.781Z,100207.55
2019-05-02T12:53:21.976Z,100219.33
2019-05-02T12:55:52.568Z,100208.48
2019-05-02T12:58:21.880Z,100223.72
2019-05-02T13:00:52.839Z,100212.02
2019-05-02T13:03:40.736Z,100216.37
2019-05-02T13:06:09.284Z,100218.12
2019-05-02T13:08:52.083Z,100220.34
2019-05-02T13:11:24.486Z,100209.94
2019-05-02T13:13:53.478Z,100209.56
2019-05-02T13:16:22.644Z,100212.19
2019-05-02T13:18:51.935Z,100202.68
2019-05-02T13:21:23.499Z,100205.31
2019-05-02T13:23:56.820Z,100205.76
2019-05-02T13:26:27.225Z,100200.58
2019-05-02T13:28:55.844Z,100197.08
2019-05-02T13:31:25.993Z,100196.25
2019-05-02T13:34:06.453Z,100195.41
2019-05-02T13:36:42.507Z,100194.16
2019-05-02T13:39:14.839Z,100198.54
2019-05-02T13:41:43.408Z,100175.53
2019-05-02T13:44:13.743Z,100182.05
2019-05-02T13:46:42.336Z,100182.05
2019-05-02T13:49:12.781Z,100179.86
2019-05-02T13:51:42.630Z,100175.91
2019-05-02T13:54:12.548Z,100181.99
2019-05-02T13:56:45.042Z,100168.94
2019-05-02T13:59:13.177Z,100171.55
2019-05-02T14:01:42.364Z,100177.17
2019-05-02T14:04:14.715Z,100165.45
2019-05-02T14:06:42.127Z,100161.06
2019-05-02T14:09:29.076Z,100161.03
2019-05-02T14:11:59.234Z,100144.82
2019-05-02T14:14:27.728Z,100146.40
2019-05-02T14:16:56.224Z,100146.66
2019-05-02T14:19:24.853Z,100142.17
2019-05-02T14:21:53.513Z,100145.11
2019-05-02T14:24:24.583Z,100137.23
2019-05-02T14:26:53.178Z,100154.20
2019-05-02T14:29:23.372Z,100147.23
2019-05-02T14:31:52.065Z,100142.05
2019-05-02T14:34:42.525Z,100143.84
2019-05-02T14:37:14.161Z,100140.02
2019-05-02T14:39:44.935Z,100139.61
2019-05-02T14:42:21.300Z,100137.89
2019-05-02T14:45:04.039Z,100135.73
2019-05-02T14:47:17.739Z,100126.64
2019-05-02T14:49:44.175Z,100135.78
2019-05-02T14:52:12.781Z,100131.05
2019-05-02T14:54:43.837Z,100128.92
2019-05-02T14:57:17.137Z,100128.10
2019-05-02T14:59:43.567Z,100133.36
2019-05-02T15:02:14.098Z,100136.45
2019-05-02T15:04:44.430Z,100124.75
2019-05-02T15:07:13.095Z,100128.25
2019-05-02T15:09:41.926Z,100129.59
2019-05-02T15:12:15.872Z,100131.34
2019-05-02T15:14:43.136Z,100128.32
2019-05-02T15:17:12.085Z,100126.60
2019-05-02T15:19:42.645Z,100125.33
2019-05-02T15:22:12.437Z,100122.77
2019-05-02T15:24:42.362Z,100128.86
2019-05-02T15:27:17.113Z,100134.97
2019-05-02T15:29:42.113Z,100129.75
2019-05-02T15:32:12.750Z,100132.80
2019-05-02T15:34:59.110Z,100135.41
2019-05-02T15:37:29.404Z,100133.70
2019-05-02T15:42:28.327Z,100142.41
2019-05-02T15:45:01.857Z,100126.77
2019-05-02T15:47:28.144Z,100126.77
2019-05-02T15:49:56.622Z,100124.60
2019-05-02T15:52:29.610Z,100114.63
2019-05-02T15:55:01.211Z,100116.81
2019-05-02T15:57:28.297Z,100121.14
2019-05-02T15:59:56.872Z,100112.91
2019-05-02T16:02:27.002Z,100112.46
2019-05-02T16:04:57.114Z,100118.12
2019-05-02T16:07:25.859Z,100112.49
2019-05-02T16:09:59.450Z,100114.66
2019-05-02T16:12:27.234Z,100109.47
2019-05-02T16:14:54.832Z,100117.31
2019-05-02T16:17:25.802Z,100114.30
2019-05-02T16:19:58.661Z,100113.02
2019-05-02T16:22:26.787Z,100104.81
2019-05-02T16:24:56.719Z,100107.89
2019-05-02T16:27:44.283Z,100103.98
2019-05-02T16:30:17.218Z,100110.05
2019-05-02T16:32:47.430Z,100108.34
2019-05-02T16:35:17.660Z,100104.01
2019-05-02T16:37:46.772Z,100102.70
2019-05-02T16:40:22.235Z,100101.41
2019-05-02T16:42:47.335Z,100107.45
2019-05-02T16:45:16.523Z,100105.23
2019-05-02T16:47:45.005Z,100102.63
2019-05-02T16:50:14.251Z,100107.36
2019-05-02T16:52:47.084Z,100096.95
2019-05-02T16:55:20.568Z,100097.80
2019-05-02T16:57:43.726Z,100091.73
2019-05-02T17:00:15.689Z,100088.24
2019-05-02T17:02:46.391Z,100088.24
2019-05-02T17:05:14.655Z,100081.73
2019-05-02T17:07:52.718Z,100079.09
2019-05-02T17:10:35.019Z,100083.45
2019-05-02T17:13:03.734Z,100081.70
2019-05-02T17:15:35.323Z,100076.93
2019-05-02T17:18:12.897Z,100080.01
2019-05-02T17:20:35.193Z,100076.99
2019-05-02T17:23:07.429Z,100079.59
2019-05-02T17:25:34.105Z,100076.16
2019-05-02T17:28:08.419Z,100074.45
2019-05-02T17:30:38.547Z,100079.23
2019-05-02T17:33:07.334Z,100075.33
2019-05-02T17:35:34.624Z,100072.72
2019-05-02T17:38:03.341Z,100067.98
2019-05-02T17:40:32.260Z,100082.75
2019-05-02T17:43:04.974Z,100071.03
2019-05-02T17:45:33.374Z,100076.23
2019-05-02T17:48:02.142Z,100073.66
2019-05-02T17:50:42.225Z,100068.90
2019-05-02T17:53:11.637Z,100074.10
2019-05-02T17:55:42.667Z,100069.78
2019-05-02T17:58:16.400Z,100065.46
2019-05-02T18:00:43.137Z,100066.79
2019-05-02T18:03:13.023Z,100065.07
2019-05-02T18:05:42.027Z,100062.91
2019-05-02T18:08:14.593Z,100061.63
2019-05-02T18:10:41.925Z,100064.23
2019-05-02T18:13:12.151Z,100062.51
2019-05-02T18:15:41.704Z,100062.09
2019-05-02T18:18:10.464Z,100064.70
2019-05-02T18:20:42.723Z,100074.66
2019-05-02T18:23:09.290Z,100090.75
2019-05-02T18:25:37.762Z,100114.20
2019-05-02T18:28:06.378Z,100128.11
2019-05-02T18:30:35.757Z,100125.12
2019-05-02T18:33:07.246Z,100129.13
2019-05-02T18:35:37.449Z,100148.23
2019-05-02T18:38:05.568Z,100136.94
2019-05-02T18:40:34.052Z,100147.75
2019-05-02T18:43:05.250Z,100143.84
2019-05-02T18:45:32.843Z,100157.64
2019-05-02T18:48:06.555Z,100157.18
2019-05-02T18:50:41.322Z,100158.00
2019-05-02T18:53:08.701Z,100152.34
2019-05-02T18:55:38.618Z,100155.34
2019-05-02T18:58:07.415Z,100160.50
2019-05-02T19:00:39.528Z,100154.84
2019-05-02T19:03:13.275Z,100161.31
2019-05-02T19:05:38.437Z,100160.41
2019-05-02T19:08:07.158Z,100144.39
2019-05-02T19:10:37.149Z,100150.41
2019-05-02T19:13:06.332Z,100149.53
2019-05-02T19:15:39.510Z,100143.45
2019-05-02T19:18:05.317Z,100149.92
2019-05-02T19:20:57.537Z,100149.48
2019-05-02T19:23:25.271Z,100158.05
2019-05-02T19:25:53.802Z,100158.87
2019-05-02T19:28:38.407Z,100163.20
2019-05-02T19:31:07.039Z,100160.18
2019-05-02T19:33:37.356Z,100158.84
2019-05-02T19:36:07.558Z,100160.56
2019-05-02T19:38:36.027Z,100161.88
2019-05-02T19:41:08.706Z,100163.14
2019-05-02T19:43:35.121Z,100162.28
2019-05-02T19:46:04.253Z,100157.53
2019-05-02T19:48:36.943Z,100159.69
2019-05-02T19:51:03.114Z,100164.87
2019-05-02T19:53:32.485Z,100164.44
2019-05-02T19:56:02.947Z,100163.17
2019-05-02T19:58:36.623Z,100155.80
2019-05-02T20:01:02.882Z,100156.69
2019-05-02T20:03:32.357Z,100131.92
2019-05-02T20:06:02.482Z,100157.94
2019-05-02T20:08:32.629Z,100163.99
2019-05-02T20:11:02.133Z,100162.27
2019-05-02T20:13:32.714Z,100170.45
2019-05-02T20:16:05.928Z,100170.89
2019-05-02T20:18:42.550Z,100168.70
2019-05-02T20:21:06.592Z,100170.00
2019-05-02T20:23:35.715Z,100169.12
2019-05-02T20:26:09.395Z,100169.55
2019-05-02T20:28:35.865Z,100169.55
2019-05-02T20:31:04.499Z,100167.83
2019-05-02T20:33:33.110Z,100164.34
2019-05-02T20:36:01.955Z,100166.08
2019-05-02T20:38:32.445Z,100165.22
2019-05-02T20:41:02.919Z,100175.58
2019-05-02T20:43:32.259Z,100175.13
2019-05-02T20:46:02.567Z,100178.99
2019-05-02T20:48:32.234Z,100179.86
2019-05-02T20:51:02.685Z,100174.22
2019-05-02T20:53:33.942Z,100184.59
2019-05-02T20:56:01.907Z,100178.52
2019-05-02T20:58:32.462Z,100181.09
2019-05-02T21:01:07.807Z,100188.00
2019-05-02T21:03:32.081Z,100182.81
2019-05-02T21:06:12.252Z,100184.11
2019-05-02T21:08:55.065Z,100183.25
2019-05-02T21:11:27.441Z,100190.18
2019-05-02T21:13:56.114Z,100187.13
2019-05-02T21:16:24.575Z,100189.32
2019-05-02T21:18:53.078Z,100190.61
2019-05-02T21:21:22.093Z,100184.54
2019-05-02T21:23:52.813Z,100191.45
2019-05-02T21:26:23.849Z,100186.70
2019-05-02T21:28:54.101Z,100189.73
2019-05-02T21:31:25.439Z,100187.97
2019-05-02T21:33:55.952Z,100191.43
2019-05-02T21:36:24.446Z,100190.57
2019-05-02T21:38:52.941Z,100196.19
2019-05-02T21:41:26.462Z,100194.89
2019-05-02T21:43:54.924Z,100197.89
2019-05-02T21:46:25.778Z,100200.44
2019-05-02T21:48:55.951Z,100201.25
2019-05-02T21:51:32.255Z,100197.30
2019-05-02T21:54:06.717Z,100201.56
2019-05-02T21:56:40.027Z,100203.18
2019-05-02T21:59:11.899Z,100212.20
2019-05-02T22:01:52.153Z,100204.78
2019-05-02T22:04:22.533Z,100212.03
2019-05-02T22:06:52.169Z,100217.58
2019-05-02T22:09:22.857Z,100218.79
2019-05-02T22:11:52.052Z,100217.03
2019-05-02T22:14:22.265Z,100222.98
2019-05-02T22:16:52.892Z,100225.50
2019-05-02T22:19:21.376Z,100226.27
2019-05-02T22:21:49.848Z,100225.77
2019-05-02T22:24:18.375Z,100226.53
2019-05-02T22:26:46.850Z,100224.28
2019-05-02T22:29:15.333Z,100238.00
2019-05-02T22:31:43.920Z,100237.93
2019-05-02T22:34:13.014Z,100246.44
2019-05-02T22:36:42.214Z,100242.06
2019-05-02T22:39:15.903Z,100251.47
2019-05-02T22:41:44.375Z,100243.63
2019-05-02T22:44:14.038Z,100250.84
2019-05-02T22:46:43.962Z,100247.75
2019-05-02T22:49:15.078Z,100251.55
2019-05-02T22:51:44.332Z,100254.52
2019-05-02T22:54:24.265Z,100259.14
2019-05-02T22:56:43.576Z,100256.04
2019-05-02T22:59:12.058Z,100259.39
2019-05-02T23:01:42.167Z,100257.16
2019-05-02T23:04:12.745Z,100258.80
2019-05-02T23:06:43.863Z,100264.34
2019-05-02T23:09:12.660Z,100264.30
2019-05-02T23:11:42.673Z,100257.76
2019-05-02T23:14:11.457Z,100261.98
2019-05-02T23:16:42.302Z,100261.49
2019-05-02T23:19:12.003Z,100264.03
2019-05-02T23:21:42.247Z,100260.97
2019-05-02T23:24:14.630Z,100266.05
2019-05-02T23:26:53.079Z,100270.73
2019-05-02T23:29:22.657Z,100275.00
2019-05-02T23:31:51.820Z,100269.36
2019-05-02T23:34:23.369Z,100282.25
2019-05-02T23:36:52.272Z,100276.61
2019-05-02T23:39:20.945Z,100282.16
2019-05-02T23:41:49.410Z,100279.48
2019-05-02T23:44:17.968Z,100282.44
2019-05-02T23:46:47.457Z,100281.91
2019-05-02T23:49:17.752Z,100279.23
2019-05-02T23:51:46.257Z,100276.98
2019-05-02T23:54:14.747Z,100282.46
2019-05-02T23:56:43.351Z,100276.73
2019-05-02T23:59:12.086Z,100277.48
